Time;durP1;ratioP1;P1;durP2;ratioP2;P2;SDS_P1;SDS_P2;PMS_P1;PMS_P2;Temp;Humidity;BMP_temperature;BMP_pressure;BME280_temperature;BME280_humidity;BME280_pressure;Samples;Min_cycle;Max_cycle;Signal;HPM_P1;HPM_P2
2023/01/09 00:01:56;;;;;;;4.00;1.23;;;9.20;84.40;;;;;;9173958;19;20483;-68
2023/01/09 00:04:58;;;;;;;4.30;1.40;;;9.20;84.40;;;;;;9173467;19;20057;-68
2023/01/09 00:08:00;;;;;;;6.05;1.50;;;9.20;84.40;;;;;;9167907;19;20018;-68
2023/01/09 00:11:01;;;;;;;3.60;1.50;;;9.30;84.50;;;;;;9171885;19;20704;-68
2023/01/09 00:14:03;;;;;;;5.10;1.58;;;9.30;84.50;;;;;;9173383;19;20015;-68
2023/01/09 00:17:04;;;;;;;2.45;1.30;;;9.20;84.50;;;;;;9175320;19;20029;-68
2023/01/09 00:20:08;;;;;;;6.40;1.80;;;9.20;84.50;;;;;;9173626;19;20011;-68
2023/01/09 00:23:10;;;;;;;4.57;1.67;;;9.30;84.60;;;;;;9178563;19;20010;-67
2023/01/09 00:26:16;;;;;;;3.95;1.67;;;9.20;84.50;;;;;;9177508;19;20479;-67
2023/01/09 00:29:18;;;;;;;6.97;2.67;;;9.20;84.60;;;;;;9174524;19;20014;-68
2023/01/09 00:32:20;;;;;;;9.77;2.20;;;9.20;84.60;;;;;;9177327;19;20023;-68
2023/01/09 00:35:24;;;;;;;5.03;1.98;;;9.20;84.80;;;;;;9180216;19;20006;-68
2023/01/09 00:38:25;;;;;;;8.15;1.65;;;9.20;84.70;;;;;;9177048;19;20042;-68
2023/01/09 00:41:46;;;;;;;3.85;1.90;;;9.20;84.80;;;;;;9179613;19;20492;-68
2023/01/09 00:44:54;;;;;;;3.13;1.30;;;9.20;84.80;;;;;;9179577;19;20104;-68
2023/01/09 00:48:02;;;;;;;3.13;1.30;;;9.20;84.80;;;;;;9177909;19;20027;-68
2023/01/09 00:51:04;;;;;;;5.15;1.67;;;9.10;84.90;;;;;;9178385;19;20015;-68
2023/01/09 00:54:06;;;;;;;1.90;1.40;;;9.10;84.90;;;;;;9175518;19;20014;-68
2023/01/09 00:57:10;;;;;;;4.25;1.73;;;9.10;85.00;;;;;;9179940;19;20045;-68
2023/01/09 01:00:12;;;;;;;2.53;1.30;;;9.10;85.00;;;;;;9177468;19;20029;-68
2023/01/09 01:03:13;;;;;;;1.92;0.57;;;9.10;85.00;;;;;;9177376;19;20018;-68
2023/01/09 01:09:35;;;;;;;1.63;0.40;;;9.10;85.00;;;;;;9176902;19;20014;-68
2023/01/09 01:12:37;;;;;;;2.38;0.50;;;9.10;85.00;;;;;;9174537;19;20026;-68
2023/01/09 01:15:41;;;;;;;0.40;0.40;;;9.00;84.90;;;;;;9177771;19;20015;-68
2023/01/09 01:18:42;;;;;;;1.63;0.40;;;9.00;84.90;;;;;;9177947;19;20581;-68
2023/01/09 01:21:43;;;;;;;0.22;0.20;;;9.00;84.90;;;;;;9176833;19;20024;-68
2023/01/09 01:24:45;;;;;;;0.75;0.50;;;9.00;84.90;;;;;;9176361;19;20014;-68
2023/01/09 01:27:46;;;;;;;2.58;0.30;;;8.90;84.80;;;;;;9176742;19;20015;-68
2023/01/09 01:30:48;;;;;;;5.20;0.40;;;8.90;84.80;;;;;;9177628;19;20018;-68
2023/01/09 01:33:49;;;;;;;0.85;0.38;;;8.90;84.80;;;;;;9175659;19;20017;-68
2023/01/09 01:36:51;;;;;;;0.40;0.40;;;8.90;84.80;;;;;;9169851;19;20054;-68
2023/01/09 01:39:52;;;;;;;0.30;0.30;;;8.80;84.70;;;;;;9172338;19;20099;-68
2023/01/09 01:42:54;;;;;;;0.30;0.30;;;8.90;84.80;;;;;;9172556;19;20018;-68
2023/01/09 01:45:56;;;;;;;1.05;0.30;;;8.80;84.70;;;;;;9170862;19;20047;-68
2023/01/09 01:49:09;;;;;;;3.33;0.40;;;8.80;84.70;;;;;;9173304;19;20086;-68
2023/01/09 01:52:11;;;;;;;0.30;0.30;;;8.80;84.70;;;;;;9172205;19;20011;-68
2023/01/09 01:55:14;;;;;;;2.40;0.30;;;8.70;84.70;;;;;;9174692;19;20077;-68
2023/01/09 01:58:16;;;;;;;0.77;0.40;;;8.70;84.80;;;;;;9174143;19;20015;-68
2023/01/09 02:01:19;;;;;;;1.27;0.40;;;8.70;84.70;;;;;;9177339;19;20056;-68
2023/01/09 02:04:21;;;;;;;1.52;0.47;;;8.70;84.70;;;;;;9177487;19;20031;-68
2023/01/09 02:07:22;;;;;;;0.80;0.52;;;8.60;84.70;;;;;;9172047;19;20526;-68
2023/01/09 02:10:24;;;;;;;3.55;0.70;;;8.60;84.70;;;;;;9171397;19;20033;-68
2023/01/09 02:13:27;;;;;;;3.17;1.02;;;8.60;84.80;;;;;;9176203;19;20014;-68
2023/01/09 02:17:01;;;;;;;1.58;1.00;;;8.60;84.80;;;;;;9176073;19;20014;-68
2023/01/09 02:20:31;;;;;;;1.65;0.80;;;8.50;84.90;;;;;;9175202;19;20022;-68
2023/01/09 02:24:09;;;;;;;1.55;0.80;;;8.50;84.90;;;;;;9176747;19;20010;-68
2023/01/09 02:27:24;;;;;;;4.47;2.28;;;8.50;84.90;;;;;;9172768;19;20491;-68
2023/01/09 02:30:41;;;;;;;3.75;0.93;;;8.40;84.80;;;;;;9173223;19;20018;-68
2023/01/09 02:33:48;;;;;;;0.75;0.70;;;8.40;85.00;;;;;;9175506;19;20044;-68
2023/01/09 02:37:19;;;;;;;2.63;1.10;;;8.40;85.00;;;;;;9175954;19;20375;-68
2023/01/09 02:40:55;;;;;;;2.85;0.95;;;8.30;85.10;;;;;;9175686;19;20010;-69
2023/01/09 02:44:20;;;;;;;5.05;1.30;;;8.30;85.10;;;;;;9173281;19;20048;-68
2023/01/09 02:47:21;;;;;;;3.70;1.90;;;8.20;85.00;;;;;;9174619;19;20027;-68
2023/01/09 02:50:33;;;;;;;3.17;1.30;;;8.20;85.00;;;;;;9172420;19;20035;-68
2023/01/09 02:54:11;;;;;;;2.08;0.93;;;8.20;85.10;;;;;;9171624;19;20015;-68
2023/01/09 02:57:50;;;;;;;3.58;1.33;;;8.10;85.20;;;;;;9173535;19;20011;-68
2023/01/09 03:01:19;;;;;;;3.17;1.17;;;8.10;85.10;;;;;;9175185;19;20010;-68
2023/01/09 03:04:45;;;;;;;2.22;1.13;;;8.10;85.10;;;;;;9175098;19;20048;-68
2023/01/09 03:08:00;;;;;;;1.45;0.90;;;8.10;85.10;;;;;;9167356;19;20007;-68
2023/01/09 03:11:06;;;;;;;;;;;8.00;85.10;;;;;;9178627;19;20011;-68
2023/01/09 03:14:13;;;;;;;2.70;0.70;;;8.00;85.20;;;;;;9180933;19;19927;-69
2023/01/09 03:17:22;;;;;;;3.65;0.70;;;8.00;85.70;;;;;;9182668;19;20015;-69
2023/01/09 03:20:28;;;;;;;3.30;1.17;;;8.00;85.10;;;;;;9182859;19;20693;-67
2023/01/09 03:23:45;;;;;;;3.03;1.30;;;7.90;85.10;;;;;;9182580;19;20035;-67
2023/01/09 03:26:47;;;;;;;4.63;1.35;;;7.90;85.20;;;;;;9180526;19;20017;-67
2023/01/09 03:29:50;;;;;;;5.30;1.50;;;7.90;85.10;;;;;;9181948;19;20054;-67
2023/01/09 03:32:51;;;;;;;3.63;1.05;;;7.80;85.10;;;;;;9179322;19;20011;-67
2023/01/09 03:35:52;;;;;;;3.97;1.52;;;7.80;85.10;;;;;;9181883;19;20018;-67
2023/01/09 03:38:54;;;;;;;5.78;1.70;;;7.80;85.10;;;;;;9181362;19;20014;-67
2023/01/09 03:41:55;;;;;;;5.00;1.67;;;7.70;85.20;;;;;;9181699;19;20033;-67
2023/01/09 03:44:57;;;;;;;2.58;1.65;;;7.70;85.20;;;;;;9180933;19;20018;-67
2023/01/09 03:47:58;;;;;;;4.57;1.95;;;7.70;85.20;;;;;;9178292;19;20041;-69
2023/01/09 03:51:00;;;;;;;3.70;1.88;;;7.60;85.20;;;;;;9179627;19;20014;-69
2023/01/09 03:54:01;;;;;;;3.83;2.00;;;7.60;85.20;;;;;;9181482;19;20014;-69
2023/01/09 03:57:02;;;;;;;4.78;2.05;;;7.60;85.20;;;;;;9181177;19;20019;-68
2023/01/09 04:00:04;;;;;;;5.80;1.95;;;7.50;85.20;;;;;;9181508;19;20022;-67
2023/01/09 04:03:13;;;;;;;3.58;1.83;;;7.50;85.30;;;;;;9182068;19;20021;-68
2023/01/09 04:06:14;;;;;;;4.25;2.05;;;7.50;85.40;;;;;;9180874;19;20475;-68
2023/01/09 04:09:16;;;;;;;3.38;1.85;;;7.40;85.30;;;;;;9176445;19;20014;-68
2023/01/09 04:12:17;;;;;;;6.70;2.42;;;7.40;85.30;;;;;;9178408;19;20038;-68
2023/01/09 04:15:19;;;;;;;6.28;2.17;;;7.30;85.40;;;;;;9180511;19;20497;-68
2023/01/09 04:18:20;;;;;;;9.05;2.13;;;7.30;86.00;;;;;;9181122;19;20015;-68
2023/01/09 04:21:21;;;;;;;5.57;2.20;;;7.30;85.40;;;;;;9178851;19;20039;-68
2023/01/09 04:24:23;;;;;;;8.30;3.28;;;7.30;85.40;;;;;;9180687;19;20023;-69
2023/01/09 04:27:24;;;;;;;4.88;2.53;;;7.30;85.50;;;;;;9180830;19;20010;-68
2023/01/09 04:30:25;;;;;;;7.07;3.00;;;7.20;85.50;;;;;;9178601;19;20019;-68
2023/01/09 04:33:27;;;;;;;3.80;2.47;;;7.20;85.50;;;;;;9180992;19;20033;-68
2023/01/09 04:36:29;;;;;;;2.92;2.13;;;7.20;85.50;;;;;;9180498;19;20022;-68
2023/01/09 04:39:30;;;;;;;13.02;2.85;;;7.20;85.60;;;;;;9180881;19;20846;-68
2023/01/09 04:42:31;;;;;;;5.40;2.50;;;7.10;85.50;;;;;;9180701;19;20073;-68
2023/01/09 04:45:33;;;;;;;5.30;2.30;;;7.10;85.60;;;;;;9177903;19;20014;-68
2023/01/09 04:48:34;;;;;;;6.00;3.08;;;7.10;85.60;;;;;;9178794;19;20081;-68
2023/01/09 04:51:36;;;;;;;3.85;2.13;;;7.10;85.60;;;;;;9177427;19;20010;-68
2023/01/09 04:54:38;;;;;;;4.88;2.25;;;7.00;85.60;;;;;;9179419;19;20025;-68
2023/01/09 04:57:39;;;;;;;4.60;1.58;;;7.00;85.60;;;;;;9180265;19;20011;-68
2023/01/09 05:00:41;;;;;;;5.43;1.70;;;7.00;85.70;;;;;;9180130;19;20014;-68
2023/01/09 05:03:42;;;;;;;6.75;1.55;;;6.90;85.60;;;;;;9179767;19;20033;-68
2023/01/09 05:06:43;;;;;;;2.20;1.60;;;6.90;85.70;;;;;;9174624;19;20048;-68
2023/01/09 05:09:45;;;;;;;3.80;1.50;;;6.90;85.70;;;;;;9177363;19;20022;-68
2023/01/09 05:12:46;;;;;;;8.45;1.60;;;6.90;85.70;;;;;;9175710;19;20357;-68
2023/01/09 05:15:48;;;;;;;2.88;1.40;;;6.90;85.70;;;;;;9178233;19;20018;-68
2023/01/09 05:18:50;;;;;;;7.15;1.80;;;6.90;85.80;;;;;;9179044;19;20060;-68
2023/01/09 05:21:51;;;;;;;3.08;1.48;;;6.80;85.80;;;;;;9178832;19;20468;-67
2023/01/09 05:24:53;;;;;;;8.43;1.73;;;6.80;85.80;;;;;;9179626;19;20346;-69
2023/01/09 05:27:54;;;;;;;3.50;1.60;;;6.80;85.80;;;;;;9178984;19;20018;-68
2023/01/09 05:30:56;;;;;;;3.78;1.45;;;6.80;85.80;;;;;;9176059;19;20019;-68
2023/01/09 05:33:59;;;;;;;5.53;1.60;;;6.70;85.80;;;;;;9177601;19;20010;-69
2023/01/09 05:37:00;;;;;;;2.10;1.25;;;6.70;85.90;;;;;;9176985;19;20014;-68
2023/01/09 05:40:02;;;;;;;5.03;1.42;;;6.70;85.90;;;;;;9178026;19;20014;-68
2023/01/09 05:43:04;;;;;;;7.30;1.40;;;6.70;85.90;;;;;;9173476;19;20025;-68
2023/01/09 05:46:05;;;;;;;4.47;1.67;;;6.70;85.90;;;;;;9178356;19;20031;-68
2023/01/09 05:49:07;;;;;;;6.35;2.17;;;6.60;85.90;;;;;;9176621;19;20344;-68
2023/01/09 05:52:08;;;;;;;6.68;1.85;;;6.60;85.90;;;;;;9175564;19;20032;-68
2023/01/09 05:55:11;;;;;;;4.35;1.88;;;6.60;86.00;;;;;;9176430;19;20795;-68
2023/01/09 05:58:12;;;;;;;6.15;2.03;;;6.60;85.90;;;;;;9178087;19;20007;-68
2023/01/09 06:01:14;;;;;;;3.83;2.00;;;6.60;86.00;;;;;;9177717;19;20388;-68
2023/01/09 06:04:16;;;;;;;8.05;2.28;;;6.60;86.00;;;;;;9177367;19;20025;-69
2023/01/09 06:07:17;;;;;;;5.35;2.40;;;6.50;86.00;;;;;;9170924;19;20014;-69
2023/01/09 06:10:23;;;;;;;5.80;1.73;;;6.50;86.00;;;;;;9173419;19;20025;-68
2023/01/09 06:13:25;;;;;;;10.07;2.15;;;6.50;86.00;;;;;;9175217;19;20023;-69
2023/01/09 06:16:26;;;;;;;6.18;2.25;;;6.50;86.00;;;;;;9177023;19;20496;-69
2023/01/09 06:19:27;;;;;;;5.78;2.08;;;6.50;86.10;;;;;;9176667;19;20028;-69
2023/01/09 06:22:29;;;;;;;8.73;1.95;;;6.50;86.10;;;;;;9176688;19;20030;-69
2023/01/09 06:25:30;;;;;;;5.15;2.22;;;6.50;86.20;;;;;;9175174;19;20041;-69
2023/01/09 06:28:31;;;;;;;3.65;2.50;;;6.50;86.20;;;;;;9170078;19;20011;-68
2023/01/09 06:31:33;;;;;;;3.95;1.65;;;6.50;86.20;;;;;;9174231;19;20096;-69
2023/01/09 06:34:35;;;;;;;5.35;2.10;;;6.50;86.20;;;;;;9176138;19;20086;-69
2023/01/09 06:37:36;;;;;;;10.68;3.05;;;6.60;86.30;;;;;;9174151;19;20027;-68
2023/01/09 06:40:37;;;;;;;13.93;2.40;;;6.50;86.30;;;;;;9177032;19;20072;-69
2023/01/09 06:43:39;;;;;;;6.50;2.00;;;6.60;86.40;;;;;;9175231;19;20503;-68
2023/01/09 06:46:40;;;;;;;4.85;2.22;;;6.60;86.40;;;;;;9183482;19;20367;-69
2023/01/09 06:49:41;;;;;;;6.38;2.10;;;6.60;86.40;;;;;;9182947;19;20024;-69
2023/01/09 06:52:43;;;;;;;12.13;3.30;;;6.60;86.40;;;;;;9182174;19;20018;-69
2023/01/09 06:55:45;;;;;;;9.05;3.08;;;6.60;86.40;;;;;;9183883;19;20018;-69
2023/01/09 06:58:46;;;;;;;6.85;2.70;;;6.60;86.40;;;;;;9184014;19;20015;-68
2023/01/09 07:01:48;;;;;;;7.57;2.20;;;6.60;86.40;;;;;;9180111;19;20026;-68
2023/01/09 07:04:49;;;;;;;8.98;2.33;;;6.60;86.50;;;;;;9178952;19;20017;-67
2023/01/09 07:07:51;;;;;;;6.85;2.13;;;6.70;86.60;;;;;;9168905;19;20018;-68
2023/01/09 07:10:52;;;;;;;7.63;1.98;;;6.70;86.60;;;;;;9169880;19;20077;-67
2023/01/09 07:13:53;;;;;;;6.32;1.85;;;6.70;86.60;;;;;;9172170;19;20508;-69
2023/01/09 07:16:55;;;;;;;7.75;1.98;;;6.70;86.60;;;;;;9171112;19;20019;-68
2023/01/09 07:19:56;;;;;;;11.43;2.10;;;6.70;86.70;;;;;;9171131;19;20010;-69
2023/01/09 07:22:57;;;;;;;11.23;2.30;;;6.80;86.70;;;;;;9173692;19;20418;-68
2023/01/09 07:25:59;;;;;;;9.10;2.00;;;6.80;86.70;;;;;;9174556;19;20022;-68
2023/01/09 07:29:01;;;;;;;6.85;1.88;;;6.80;86.70;;;;;;9173984;19;20628;-66
2023/01/09 07:32:03;;;;;;;8.43;1.60;;;6.80;86.70;;;;;;9171807;19;20429;-68
2023/01/09 07:35:08;;;;;;;10.40;2.53;;;6.90;86.80;;;;;;9174598;19;20022;-68
2023/01/09 07:38:10;;;;;;;5.65;1.40;;;6.90;86.80;;;;;;9178631;19;20018;-69
2023/01/09 07:41:11;;;;;;;10.02;1.95;;;6.90;86.80;;;;;;9180122;19;20011;-69
2023/01/09 07:44:13;;;;;;;9.98;1.80;;;6.90;86.70;;;;;;9181639;19;20019;-71
2023/01/09 07:47:15;;;;;;;8.77;1.88;;;7.00;86.80;;;;;;9179831;19;20077;-69
2023/01/09 07:50:16;;;;;;;9.73;2.50;;;7.00;86.80;;;;;;9181289;19;20491;-67
2023/01/09 07:53:18;;;;;;;11.15;2.00;;;7.00;86.80;;;;;;9182261;19;20499;-69
2023/01/09 07:56:19;;;;;;;6.75;1.20;;;7.00;86.80;;;;;;9181373;19;20402;-67
2023/01/09 07:59:21;;;;;;;13.02;1.63;;;7.00;86.80;;;;;;9179826;19;20047;-67
2023/01/09 08:02:22;;;;;;;7.60;1.63;;;7.10;86.90;;;;;;9179243;19;20010;-67
2023/01/09 08:05:23;;;;;;;8.60;2.40;;;7.10;86.90;;;;;;9179748;19;20467;-67
2023/01/09 08:08:25;;;;;;;3.85;1.50;;;7.10;86.90;;;;;;9176525;19;20459;-66
2023/01/09 08:11:26;;;;;;;6.85;2.65;;;7.10;86.90;;;;;;9178748;19;20018;-67
2023/01/09 08:14:28;;;;;;;7.20;2.03;;;7.10;87.00;;;;;;9180170;19;20021;-67
2023/01/09 08:17:29;;;;;;;6.20;1.52;;;7.20;87.00;;;;;;9180228;19;20358;-67
2023/01/09 08:20:31;;;;;;;8.73;1.70;;;7.20;87.00;;;;;;9181225;19;20014;-67
2023/01/09 08:23:32;;;;;;;14.55;1.80;;;7.20;87.00;;;;;;9179940;19;20025;-69
2023/01/09 08:26:34;;;;;;;12.30;1.75;;;7.20;87.00;;;;;;9178548;19;20681;-67
2023/01/09 08:29:35;;;;;;;7.90;1.58;;;7.20;87.00;;;;;;9177137;19;20018;-67
2023/01/09 08:32:37;;;;;;;9.68;1.80;;;7.30;87.10;;;;;;9176077;19;20018;-68
2023/01/09 08:35:38;;;;;;;9.50;1.67;;;7.30;87.10;;;;;;9179331;19;20467;-67
2023/01/09 08:38:39;;;;;;;8.65;2.20;;;7.30;87.10;;;;;;9177993;19;20014;-67
2023/01/09 08:48:23;;;;;;;9.55;1.73;;;7.40;87.10;;;;;;9178375;19;20416;-67
2023/01/09 08:51:24;;;;;;;8.43;1.73;;;7.40;87.10;;;;;;9179207;19;20468;-68
2023/01/09 08:54:26;;;;;;;9.07;1.65;;;7.40;87.10;;;;;;9179873;19;20014;-67
2023/01/09 08:57:28;;;;;;;8.23;2.15;;;7.40;87.00;;;;;;9177613;19;20029;-67
2023/01/09 09:00:29;;;;;;;5.55;1.85;;;7.50;87.10;;;;;;9179388;19;20019;-67
2023/01/09 09:03:31;;;;;;;10.73;1.80;;;7.50;87.10;;;;;;9174614;19;20019;-66
2023/01/09 09:06:33;;;;;;;7.10;2.30;;;7.50;87.10;;;;;;9171380;19;20014;-67
2023/01/09 09:09:34;;;;;;;6.78;1.88;;;7.50;87.20;;;;;;9179294;19;20014;-67
2023/01/09 09:12:35;;;;;;;10.20;1.90;;;7.60;87.20;;;;;;9171820;19;20018;-67
2023/01/09 09:15:37;;;;;;;5.45;1.77;;;7.60;87.20;;;;;;9171190;19;20019;-67
2023/01/09 09:18:39;;;;;;;5.97;2.17;;;7.60;87.20;;;;;;9170369;19;20025;-67
2023/01/09 09:21:40;;;;;;;7.38;2.22;;;7.60;87.20;;;;;;9177359;19;20022;-68
2023/01/09 09:24:41;;;;;;;8.32;1.67;;;7.60;87.20;;;;;;9174222;19;20021;-69
2023/01/09 09:27:43;;;;;;;4.00;1.75;;;7.60;87.20;;;;;;9168393;19;20027;-68
2023/01/09 09:30:45;;;;;;;5.57;1.77;;;7.60;87.20;;;;;;9173663;19;20811;-67
2023/01/09 09:33:46;;;;;;;15.55;2.25;;;7.60;87.20;;;;;;9174277;19;20014;-66
2023/01/09 09:36:47;;;;;;;6.55;1.35;;;7.60;87.20;;;;;;9174084;19;20010;-69
2023/01/09 09:39:49;;;;;;;6.53;1.50;;;7.70;87.30;;;;;;9173950;19;20022;-68
2023/01/09 09:47:21;;;;;;;7.30;1.50;;;7.70;87.40;;;;;;9178493;19;20022;-68
2023/01/09 09:50:22;;;;;;;8.05;1.52;;;7.70;87.30;;;;;;9178099;19;20019;-68
2023/01/09 09:53:43;;;;;;;6.15;1.25;;;7.70;87.30;;;;;;9177961;19;20019;-68
2023/01/09 09:56:55;;;;;;;6.20;1.52;;;7.70;87.40;;;;;;9177439;19;20014;-68
2023/01/09 09:59:57;;;;;;;4.00;1.45;;;7.70;87.40;;;;;;9175571;19;20027;-67
2023/01/09 10:03:21;;;;;;;4.78;1.23;;;7.70;87.30;;;;;;9178932;19;20024;-67
2023/01/09 10:06:41;;;;;;;7.00;1.50;;;7.70;87.40;;;;;;9172410;19;20034;-68
2023/01/09 10:09:53;;;;;;;3.40;1.27;;;7.70;87.30;;;;;;9176221;19;20010;-68
2023/01/09 10:14:03;;;;;;;5.55;1.50;;;7.70;87.40;;;;;;9174291;19;20003;-68
2023/01/09 10:16:41;;;;;;;5.05;1.75;;;7.70;87.40;;;;;;9175969;19;20100;-68
2023/01/09 10:19:43;;;;;;;8.48;1.90;;;7.70;87.40;;;;;;9179964;19;20006;-67
2023/01/09 10:23:03;;;;;;;2.78;1.48;;;7.70;87.40;;;;;;9182421;19;20030;-68
2023/01/09 10:26:29;;;;;;;5.85;1.60;;;7.80;87.50;;;;;;9185245;19;20022;-67
2023/01/09 10:29:54;;;;;;;8.68;1.90;;;7.70;87.50;;;;;;9183601;19;20017;-67
2023/01/09 10:33:33;;;;;;;5.18;1.90;;;7.80;87.50;;;;;;9182218;19;20018;-68
2023/01/09 10:36:56;;;;;;;7.65;1.90;;;7.80;87.60;;;;;;9184087;19;20019;-68
2023/01/09 10:40:15;;;;;;;5.80;2.35;;;7.80;87.50;;;;;;9184860;19;20015;-68
2023/01/09 10:43:31;;;;;;;7.57;2.00;;;7.80;87.50;;;;;;9184075;19;20014;-68
2023/01/09 10:46:44;;;;;;;3.88;2.17;;;7.80;87.60;;;;;;9183914;19;20081;-67
2023/01/09 10:49:48;;;;;;;6.53;2.37;;;7.80;87.60;;;;;;9183043;19;20018;-68
2023/01/09 10:52:52;;;;;;;5.75;2.53;;;7.80;87.50;;;;;;9181720;19;20014;-68
2023/01/09 10:56:00;;;;;;;9.38;2.80;;;7.80;87.60;;;;;;9183551;19;20031;-68
2023/01/09 10:59:01;;;;;;;4.65;2.15;;;7.90;87.70;;;;;;9183756;19;20007;-67
2023/01/09 11:02:03;;;;;;;6.63;2.35;;;7.90;87.80;;;;;;9181396;19;20628;-66
2023/01/09 11:05:04;;;;;;;4.13;2.28;;;7.90;87.80;;;;;;9181760;19;20085;-67
2023/01/09 11:08:12;;;;;;;5.70;2.50;;;7.90;87.70;;;;;;9176322;19;20022;-67
2023/01/09 11:11:31;;;;;;;4.25;1.80;;;7.90;87.70;;;;;;9181200;19;20374;-67
2023/01/09 11:14:32;;;;;;;6.40;2.25;;;7.90;87.80;;;;;;9182885;19;20090;-67
2023/01/09 11:17:33;;;;;;;5.18;2.40;;;7.90;87.70;;;;;;9181849;19;20014;-68
2023/01/09 11:20:35;;;;;;;8.07;2.60;;;7.90;87.80;;;;;;9178175;19;20098;-68
2023/01/09 11:23:36;;;;;;;5.10;1.90;;;8.00;87.80;;;;;;9182760;19;20032;-67
2023/01/09 11:26:38;;;;;;;5.35;2.55;;;8.00;87.90;;;;;;9178196;19;20023;-68
2023/01/09 11:29:40;;;;;;;3.08;1.92;;;8.00;87.90;;;;;;9178056;19;20490;-68
2023/01/09 11:32:44;;;;;;;5.20;2.03;;;8.00;87.90;;;;;;9175317;19;20010;-67
2023/01/09 11:35:56;;;;;;;7.00;2.22;;;8.00;88.00;;;;;;9176035;19;20075;-66
2023/01/09 11:38:59;;;;;;;3.08;1.88;;;8.00;88.10;;;;;;9163615;19;20022;-66
2023/01/09 11:42:08;;;;;;;6.05;1.67;;;8.00;88.00;;;;;;9167606;19;20471;-66
2023/01/09 11:45:23;;;;;;;6.22;2.20;;;8.00;88.00;;;;;;9166249;19;20026;-65
2023/01/09 11:48:29;;;;;;;3.08;1.48;;;8.10;88.10;;;;;;9170301;19;20026;-65
2023/01/09 11:51:33;;;;;;;5.68;1.13;;;8.10;88.00;;;;;;9169168;19;20023;-65
2023/01/09 11:54:39;;;;;;;3.88;1.27;;;8.10;88.00;;;;;;9178887;19;20032;-67
2023/01/09 11:57:40;;;;;;;5.45;1.25;;;8.10;88.10;;;;;;9181567;19;20011;-65
2023/01/09 12:01:25;;;;;;;4.72;1.30;;;8.10;88.10;;;;;;9181450;19;20061;-67
2023/01/09 12:04:36;;;;;;;5.85;3.20;;;8.10;88.20;;;;;;9179318;19;20018;-66
2023/01/09 12:07:53;;;;;;;3.83;1.40;;;8.20;88.10;;;;;;9175147;19;20422;-67
2023/01/09 12:11:27;;;;;;;4.75;1.08;;;8.20;88.10;;;;;;9178647;19;20009;-67
2023/01/09 12:14:43;;;;;;;5.97;1.23;;;8.10;88.10;;;;;;9179145;19;20014;-68
2023/01/09 12:17:48;;;;;;;8.40;1.13;;;8.20;88.10;;;;;;9180966;19;20021;-67
2023/01/09 12:21:14;;;;;;;3.22;1.05;;;8.20;88.10;;;;;;9181461;19;20022;-66
2023/01/09 12:24:37;;;;;;;6.10;1.05;;;8.20;88.20;;;;;;9177984;19;20040;-65
2023/01/09 12:27:55;;;;;;;3.67;1.13;;;8.20;88.10;;;;;;9181166;19;20479;-65
2023/01/09 12:31:31;;;;;;;4.32;1.33;;;8.20;88.20;;;;;;9177933;19;20026;-67
2023/01/09 12:34:45;;;;;;;4.55;1.20;;;8.20;88.20;;;;;;9175695;19;20106;-66
2023/01/09 12:38:01;;;;;;;6.47;1.50;;;8.20;88.10;;;;;;9177740;19;20066;-65
2023/01/09 12:41:30;;;;;;;13.18;1.38;;;8.20;88.20;;;;;;9178262;19;20018;-65
2023/01/09 12:44:59;;;;;;;3.75;1.17;;;8.20;88.10;;;;;;9179595;19;20047;-65
2023/01/09 12:48:26;;;;;;;2.83;0.77;;;8.20;88.20;;;;;;9180281;19;20015;-65
2023/01/09 12:51:30;;;;;;;4.90;1.63;;;8.20;88.20;;;;;;9178728;19;20037;-68
2023/01/09 12:54:57;;;;;;;4.45;1.48;;;8.20;88.10;;;;;;9179498;19;20511;-66
2023/01/09 12:58:07;;;;;;;4.78;1.95;;;8.20;88.20;;;;;;9179093;19;20026;-66
2023/01/09 13:01:35;;;;;;;4.20;1.40;;;8.20;88.10;;;;;;9180799;19;20014;-65
2023/01/09 13:04:46;;;;;;;4.55;1.45;;;8.20;88.30;;;;;;9178610;19;20018;-66
2023/01/09 13:07:53;;;;;;;3.90;1.60;;;8.20;88.20;;;;;;9174802;19;20031;-65
2023/01/09 13:11:03;;;;;;;4.90;1.05;;;8.20;88.20;;;;;;9176166;19;20022;-65
2023/01/09 13:14:37;;;;;;;5.25;1.85;;;8.30;88.30;;;;;;9178488;19;20034;-66
2023/01/09 13:17:47;;;;;;;4.55;1.92;;;8.30;88.20;;;;;;9178366;19;20011;-66
2023/01/09 13:20:52;;;;;;;12.07;3.30;;;8.30;88.20;;;;;;9178794;19;20014;-65
2023/01/09 13:24:34;;;;;;;6.63;2.20;;;8.30;88.30;;;;;;9178666;19;20441;-65
2023/01/09 13:27:39;;;;;;;4.82;1.75;;;8.30;89.00;;;;;;9177402;19;20108;-66
2023/01/09 13:31:01;;;;;;;12.77;3.00;;;8.40;88.30;;;;;;9178644;19;20459;-66
2023/01/09 13:34:12;;;;;;;16.15;2.20;;;8.40;88.50;;;;;;9174040;19;20093;-65
2023/01/09 13:37:27;;;;;;;10.43;2.58;;;8.50;88.50;;;;;;9176069;19;20026;-66
2023/01/09 13:40:29;;;;;;;9.70;2.17;;;8.50;88.40;;;;;;9176416;19;20022;-65
2023/01/09 13:43:52;;;;;;;10.90;2.25;;;8.50;88.40;;;;;;9172306;19;20022;-66
2023/01/09 13:46:56;;;;;;;7.93;2.70;;;8.60;88.60;;;;;;9169320;19;20380;-65
2023/01/09 13:50:04;;;;;;;14.18;2.60;;;8.60;88.50;;;;;;9168628;19;20018;-67
2023/01/09 13:53:26;;;;;;;10.52;2.13;;;8.60;88.50;;;;;;9163929;19;20585;-66
2023/01/09 13:56:30;;;;;;;17.98;2.28;;;8.60;88.60;;;;;;9166910;19;20015;-66
2023/01/09 13:59:31;;;;;;;7.65;1.85;;;8.60;88.50;;;;;;9171811;19;20397;-66
2023/01/09 14:02:35;;;;;;;5.70;1.77;;;8.70;88.60;;;;;;9176688;19;20022;-66
2023/01/09 14:05:37;;;;;;;14.05;2.05;;;8.70;88.60;;;;;;9177486;19;20030;-68
2023/01/09 14:08:40;;;;;;;10.18;3.28;;;8.70;88.60;;;;;;9168636;19;20018;-65
2023/01/09 14:11:42;;;;;;;8.13;1.98;;;8.70;88.60;;;;;;9173516;19;20011;-67
2023/01/09 14:14:45;;;;;;;19.00;3.35;;;8.80;88.60;;;;;;9176697;19;20003;-67
2023/01/09 14:17:48;;;;;;;13.73;2.13;;;8.80;88.60;;;;;;9176125;19;20022;-68
2023/01/09 14:21:05;;;;;;;11.43;2.20;;;8.80;88.60;;;;;;9175412;19;20023;-67
2023/01/09 14:24:18;;;;;;;9.57;2.10;;;8.80;88.60;;;;;;9175826;19;20382;-67
2023/01/09 14:27:53;;;;;;;14.48;2.58;;;8.90;88.60;;;;;;9176420;19;20044;-67
2023/01/09 14:30:58;;;;;;;12.65;2.20;;;8.90;88.60;;;;;;9175659;19;20029;-67
2023/01/09 14:34:27;;;;;;;11.50;2.35;;;8.80;88.50;;;;;;9174203;19;20022;-67
2023/01/09 14:37:35;;;;;;;14.80;2.60;;;8.90;88.60;;;;;;9174066;19;20011;-67
2023/01/09 14:40:46;;;;;;;12.20;2.35;;;8.90;88.50;;;;;;9171807;19;20014;-67
2023/01/09 14:44:00;;;;;;;6.50;2.15;;;8.90;88.50;;;;;;9174663;19;20018;-67
2023/01/09 14:47:20;;;;;;;;;;;8.90;88.50;;;;;;9175386;19;20116;-67
2023/01/09 14:50:45;;;;;;;10.77;2.10;;;8.90;88.40;;;;;;9172304;19;19922;-67
2023/01/09 14:53:50;;;;;;;14.20;2.63;;;8.90;88.30;;;;;;9173541;19;20014;-68
2023/01/09 14:56:52;;;;;;;13.50;2.90;;;8.90;88.30;;;;;;9171874;19;20018;-67
2023/01/09 14:59:58;;;;;;;8.93;2.38;;;8.90;88.30;;;;;;9173775;19;20043;-68
2023/01/09 15:03:01;;;;;;;8.18;2.22;;;8.90;88.30;;;;;;9170856;19;20029;-67
2023/01/09 15:06:04;;;;;;;13.27;2.25;;;8.90;88.30;;;;;;9176796;19;20025;-67
2023/01/09 15:09:14;;;;;;;8.57;2.30;;;8.80;88.30;;;;;;9176039;19;20015;-66
2023/01/09 15:12:21;;;;;;;13.40;2.80;;;8.80;88.30;;;;;;9180267;19;20018;-66
2023/01/09 15:15:24;;;;;;;10.80;2.78;;;8.90;88.30;;;;;;9180723;19;20007;-66
2023/01/09 15:18:29;;;;;;;13.80;2.80;;;8.80;88.30;;;;;;9180738;19;20018;-66
2023/01/09 15:21:31;;;;;;;10.77;2.63;;;8.80;88.20;;;;;;9182179;19;20070;-68
2023/01/09 15:24:33;;;;;;;8.02;2.53;;;8.80;88.30;;;;;;9181446;19;20007;-67
2023/01/09 15:27:56;;;;;;;8.15;2.30;;;8.70;88.20;;;;;;9181130;19;20013;-68
2023/01/09 15:31:12;;;;;;;9.88;1.95;;;8.70;88.20;;;;;;9180313;19;20026;-66
2023/01/09 15:34:18;;;;;;;12.13;3.03;;;8.70;88.20;;;;;;9180395;19;20018;-66
2023/01/09 15:37:37;;;;;;;17.85;2.83;;;8.70;88.20;;;;;;9178702;19;20022;-66
2023/01/09 15:40:40;;;;;;;5.45;2.08;;;8.60;88.10;;;;;;9179659;19;20767;-66
2023/01/09 15:43:43;;;;;;;9.85;3.00;;;8.60;88.10;;;;;;9180438;19;20019;-66
2023/01/09 15:46:45;;;;;;;10.57;2.37;;;8.60;88.20;;;;;;9180852;19;20018;-66
2023/01/09 15:49:47;;;;;;;14.88;2.30;;;8.60;88.10;;;;;;9179105;19;20078;-66
2023/01/09 15:52:49;;;;;;;7.43;2.40;;;8.60;88.10;;;;;;9178661;19;20078;-68
2023/01/09 15:56:15;;;;;;;14.07;2.97;;;8.60;88.10;;;;;;9176405;19;20465;-68
2023/01/09 15:59:27;;;;;;;9.40;1.83;;;8.50;88.10;;;;;;9171068;19;20120;-68
2023/01/09 16:06:13;;;;;;;12.88;2.03;;;8.50;88.10;;;;;;9173536;19;20707;-67
2023/01/09 16:09:16;;;;;;;11.25;1.73;;;8.50;88.10;;;;;;9172031;19;20027;-67
2023/01/09 16:12:24;;;;;;;16.40;2.57;;;8.50;88.10;;;;;;9170114;19;20502;-67
2023/01/09 16:15:30;;;;;;;15.63;2.85;;;8.40;88.10;;;;;;9173156;19;20018;-67
2023/01/09 16:18:36;;;;;;;12.88;2.10;;;8.40;88.10;;;;;;9172260;19;20484;-67
2023/01/09 16:21:37;;;;;;;15.55;2.08;;;8.40;88.10;;;;;;9169186;19;20971;-67
2023/01/09 16:24:40;;;;;;;8.75;2.15;;;8.40;88.00;;;;;;9171236;19;20018;-67
2023/01/09 16:27:42;;;;;;;8.02;2.38;;;8.40;88.00;;;;;;9168409;19;20018;-67
2023/01/09 16:31:27;;;;;;;13.27;2.05;;;8.40;88.00;;;;;;9173412;19;20018;-67
2023/01/09 16:34:29;;;;;;;10.48;2.50;;;8.30;88.00;;;;;;9169267;19;20022;-67
2023/01/09 16:37:33;;;;;;;10.15;2.15;;;8.30;87.90;;;;;;9170124;19;20084;-67
2023/01/09 16:40:35;;;;;;;12.27;2.97;;;8.30;87.90;;;;;;9167445;19;20788;-68
2023/01/09 16:43:36;;;;;;;8.10;2.53;;;8.30;87.90;;;;;;9164456;19;20074;-68